createdAt,value
2023-02-03T00:01:27.183Z,6.40
2023-02-03T00:03:56.684Z,5.50
2023-02-03T00:06:39.329Z,4.90
2023-02-03T00:09:09.005Z,4.80
2023-02-03T00:11:44.290Z,5.20
2023-02-03T00:14:18.175Z,3.90
2023-02-03T00:16:47.905Z,5.60
2023-02-03T00:19:17.496Z,7.10
2023-02-03T00:21:46.402Z,9.70
2023-02-03T00:25:47.507Z,9.20
2023-02-03T00:28:16.707Z,9.40
2023-02-03T00:31:29.036Z,5.60
2023-02-03T00:34:03.038Z,8.80
2023-02-03T00:36:33.677Z,5.20
2023-02-03T00:39:05.395Z,5.20
2023-02-03T00:41:35.043Z,3.80
2023-02-03T00:44:03.892Z,6.20
2023-02-03T00:47:39.177Z,4.30
2023-02-03T00:51:53.224Z,3.20
2023-02-03T00:58:47.792Z,2.90
2023-02-03T01:02:15.100Z,4.50
2023-02-03T01:04:54.459Z,5.10
2023-02-03T01:08:26.115Z,3.60
2023-02-03T01:11:18.639Z,4.30
2023-02-03T01:14:47.645Z,4.70
2023-02-03T01:18:02.094Z,4.80
2023-02-03T01:21:13.163Z,3.30
2023-02-03T01:24:57.153Z,3.50
2023-02-03T01:37:08.302Z,4.70
2023-02-03T01:43:21.249Z,4.20
2023-02-03T01:47:37.224Z,5.20
2023-02-03T01:54:25.976Z,2.70
2023-02-03T01:58:43.532Z,4.10
2023-02-03T02:02:33.683Z,4.20
2023-02-03T02:06:20.934Z,3.80
2023-02-03T02:10:09.082Z,4.80
2023-02-03T02:29:10.947Z,4.40
2023-02-03T02:33:08.644Z,3.50
2023-02-03T02:46:49.383Z,2.40
2023-02-03T02:55:11.729Z,3.60
2023-02-03T02:58:38.189Z,3.00
2023-02-03T03:06:02.766Z,3.80
2023-02-03T03:09:00.687Z,4.00
2023-02-03T03:12:23.552Z,3.80
2023-02-03T03:32:52.888Z,4.00
2023-02-03T03:35:22.490Z,3.00
2023-02-03T03:38:04.449Z,4.40
2023-02-03T03:40:44.562Z,3.70
2023-02-03T03:44:17.446Z,6.20
2023-02-03T03:47:56.259Z,4.70
2023-02-03T03:51:39.962Z,3.00
2023-02-03T03:54:54.796Z,7.10
2023-02-03T04:02:25.803Z,6.20
2023-02-03T04:05:37.054Z,4.80
2023-02-03T04:08:29.655Z,5.30
2023-02-03T04:11:45.133Z,6.00
2023-02-03T04:14:14.637Z,7.00
2023-02-03T04:16:42.486Z,4.70
2023-02-03T04:20:25.228Z,3.40
2023-02-03T04:24:22.762Z,5.80
2023-02-03T04:33:12.528Z,5.70
2023-02-03T04:36:01.066Z,4.90
2023-02-03T04:39:10.810Z,5.90
2023-02-03T04:42:01.136Z,4.00
2023-02-03T04:44:29.177Z,4.30
2023-02-03T04:46:59.648Z,6.00
2023-02-03T04:49:29.708Z,6.80
2023-02-03T04:56:33.140Z,6.30
2023-02-03T04:59:02.519Z,6.40
2023-02-03T05:01:34.687Z,6.40
2023-02-03T05:05:13.707Z,6.80
2023-02-03T05:13:34.745Z,6.40
2023-02-03T05:22:45.551Z,7.80
2023-02-03T05:31:28.648Z,8.20
2023-02-03T05:35:01.001Z,6.70
2023-02-03T05:43:36.021Z,6.70
2023-02-03T05:55:45.920Z,6.50
2023-02-03T06:18:29.523Z,8.20
2023-02-03T06:22:46.641Z,9.00
2023-02-03T06:26:57.244Z,9.80
2023-02-03T06:36:53.494Z,7.60
2023-02-03T06:39:21.178Z,8.50
2023-02-03T06:41:48.168Z,6.80
2023-02-03T06:44:15.424Z,8.70
2023-02-03T06:46:45.120Z,9.60
2023-02-03T07:00:23.966Z,9.80
2023-02-03T07:02:55.609Z,8.80
2023-02-03T07:05:23.969Z,13.00
2023-02-03T07:07:51.289Z,8.90
2023-02-03T07:10:20.319Z,8.60
2023-02-03T07:12:46.645Z,10.00
2023-02-03T07:15:13.314Z,9.10
2023-02-03T07:17:41.490Z,9.00
2023-02-03T07:20:15.451Z,11.00
2023-02-03T07:22:44.580Z,7.60
2023-02-03T07:25:11.011Z,6.70
2023-02-03T07:27:37.977Z,9.20
2023-02-03T07:30:30.478Z,8.60
2023-02-03T07:33:19.413Z,12.50
2023-02-03T07:35:57.059Z,12.10
2023-02-03T07:38:27.110Z,10.60
2023-02-03T07:41:34.940Z,10.90
2023-02-03T07:44:19.371Z,8.00
2023-02-03T07:46:47.861Z,8.10
2023-02-03T07:49:18.309Z,10.80
2023-02-03T07:51:44.815Z,8.30
2023-02-03T07:54:37.488Z,9.50
2023-02-03T07:57:05.829Z,9.90
2023-02-03T07:59:33.012Z,9.10
2023-02-03T08:06:11.344Z,9.50
2023-02-03T08:08:56.319Z,8.60
2023-02-03T08:11:31.757Z,9.90
2023-02-03T08:13:58.959Z,8.90
2023-02-03T08:16:47.545Z,7.50
2023-02-03T08:19:21.658Z,8.00
2023-02-03T08:35:11.346Z,9.10
2023-02-03T08:37:39.889Z,6.60
2023-02-03T08:40:18.461Z,6.50
2023-02-03T08:42:54.088Z,7.60
2023-02-03T08:45:26.400Z,6.90
2023-02-03T08:48:15.702Z,7.00
2023-02-03T08:50:45.515Z,5.80
2023-02-03T08:53:17.820Z,9.60
2023-02-03T08:56:10.417Z,8.40
2023-02-03T08:58:40.128Z,5.30
2023-02-03T09:02:08.601Z,6.20
2023-02-03T09:04:56.827Z,6.90
2023-02-03T09:07:25.319Z,4.90
2023-02-03T09:09:55.515Z,8.20
2023-02-03T09:12:24.685Z,5.70
2023-02-03T09:14:54.379Z,8.30
2023-02-03T09:17:23.759Z,5.00
2023-02-03T09:19:52.243Z,4.70
2023-02-03T09:22:28.555Z,5.00
2023-02-03T09:24:58.228Z,6.10
2023-02-03T09:27:36.475Z,8.50
2023-02-03T09:30:12.069Z,4.60
2023-02-03T09:32:48.706Z,6.70
2023-02-03T09:35:22.438Z,3.80
2023-02-03T09:37:50.348Z,6.80
2023-02-03T09:40:28.568Z,6.30
2023-02-03T09:43:23.715Z,5.20
2023-02-03T09:45:51.793Z,6.40
2023-02-03T09:48:28.938Z,5.30
2023-02-03T09:50:56.117Z,4.20
2023-02-03T09:53:45.589Z,7.70
